sensor_id;sensor_type;location;lat;lon;timestamp;temperature;humidity
59015;DHT22;44799;53.382;14.666;2022-09-12T00:01:37;18.10;99.90
59015;DHT22;44799;53.382;14.666;2022-09-12T00:04:03;16.90;99.90
59015;DHT22;44799;53.382;14.666;2022-09-12T00:06:34;16.70;99.90
59015;DHT22;44799;53.382;14.666;2022-09-12T00:09:06;16.80;99.90
59015;DHT22;44799;53.382;14.666;2022-09-12T00:11:35;16.60;99.90
59015;DHT22;44799;53.382;14.666;2022-09-12T00:14:02;16.80;99.90
59015;DHT22;44799;53.382;14.666;2022-09-12T00:16:32;16.80;99.90
59015;DHT22;44799;53.382;14.666;2022-09-12T00:18:58;16.80;99.90
59015;DHT22;44799;53.382;14.666;2022-09-12T00:21:25;16.80;99.90
59015;DHT22;44799;53.382;14.666;2022-09-12T00:23:51;17.00;99.90
59015;DHT22;44799;53.382;14.666;2022-09-12T00:26:17;16.80;99.90
59015;DHT22;44799;53.382;14.666;2022-09-12T00:28:44;16.80;99.90
59015;DHT22;44799;53.382;14.666;2022-09-12T00:31:13;16.80;99.90
59015;DHT22;44799;53.382;14.666;2022-09-12T00:33:39;16.90;99.90
59015;DHT22;44799;53.382;14.666;2022-09-12T00:36:09;16.60;99.90
59015;DHT22;44799;53.382;14.666;2022-09-12T00:38:36;16.70;99.90
59015;DHT22;44799;53.382;14.666;2022-09-12T00:41:06;16.60;99.90
59015;DHT22;44799;53.382;14.666;2022-09-12T00:43:43;16.60;99.90
59015;DHT22;44799;53.382;14.666;2022-09-12T00:46:19;16.60;99.90
59015;DHT22;44799;53.382;14.666;2022-09-12T00:49:00;16.60;99.90
59015;DHT22;44799;53.382;14.666;2022-09-12T00:51:29;16.50;99.90
59015;DHT22;44799;53.382;14.666;2022-09-12T00:53:56;16.50;99.90
59015;DHT22;44799;53.382;14.666;2022-09-12T00:56:24;16.50;99.90
59015;DHT22;44799;53.382;14.666;2022-09-12T00:59:06;16.50;99.90
59015;DHT22;44799;53.382;14.666;2022-09-12T01:01:35;16.40;99.90
59015;DHT22;44799;53.382;14.666;2022-09-12T01:04:02;16.40;99.90
59015;DHT22;44799;53.382;14.666;2022-09-12T01:06:33;16.40;99.90
59015;DHT22;44799;53.382;14.666;2022-09-12T01:09:00;17.20;99.90
59015;DHT22;44799;53.382;14.666;2022-09-12T01:11:31;16.40;99.90
59015;DHT22;44799;53.382;14.666;2022-09-12T01:13:58;16.40;99.90
59015;DHT22;44799;53.382;14.666;2022-09-12T01:16:24;16.50;99.90
59015;DHT22;44799;53.382;14.666;2022-09-12T01:19:40;16.50;99.90
59015;DHT22;44799;53.382;14.666;2022-09-12T01:22:27;16.50;99.90
59015;DHT22;44799;53.382;14.666;2022-09-12T01:33:50;16.30;99.90
59015;DHT22;44799;53.382;14.666;2022-09-12T01:39:26;17.00;99.90
59015;DHT22;44799;53.382;14.666;2022-09-12T01:45:15;16.20;99.90
59015;DHT22;44799;53.382;14.666;2022-09-12T01:47:39;16.20;99.90
59015;DHT22;44799;53.382;14.666;2022-09-12T01:50:21;16.20;99.90
59015;DHT22;44799;53.382;14.666;2022-09-12T01:53:03;16.20;99.90
59015;DHT22;44799;53.382;14.666;2022-09-12T01:55:47;14.80;99.90
59015;DHT22;44799;53.382;14.666;2022-09-12T01:58:26;16.20;99.90
59015;DHT22;44799;53.382;14.666;2022-09-12T02:01:01;16.20;99.90
59015;DHT22;44799;53.382;14.666;2022-09-12T02:03:42;16.20;99.90
59015;DHT22;44799;53.382;14.666;2022-09-12T02:06:25;16.10;99.90
59015;DHT22;44799;53.382;14.666;2022-09-12T02:08:56;16.10;99.90
59015;DHT22;44799;53.382;14.666;2022-09-12T02:11:23;16.00;99.90
59015;DHT22;44799;53.382;14.666;2022-09-12T02:13:56;16.10;99.90
59015;DHT22;44799;53.382;14.666;2022-09-12T02:16:33;15.90;99.90
59015;DHT22;44799;53.382;14.666;2022-09-12T02:19:07;15.40;99.90
59015;DHT22;44799;53.382;14.666;2022-09-12T02:21:35;15.90;99.90
59015;DHT22;44799;53.382;14.666;2022-09-12T02:24:07;15.90;99.90
59015;DHT22;44799;53.382;14.666;2022-09-12T02:26:37;15.90;99.90
59015;DHT22;44799;53.382;14.666;2022-09-12T02:29:07;14.90;99.90
59015;DHT22;44799;53.382;14.666;2022-09-12T02:31:46;15.10;99.90
59015;DHT22;44799;53.382;14.666;2022-09-12T02:37:44;15.50;99.90
59015;DHT22;44799;53.382;14.666;2022-09-12T02:40:12;14.00;99.90
59015;DHT22;44799;53.382;14.666;2022-09-12T02:42:38;15.50;99.90
59015;DHT22;44799;53.382;14.666;2022-09-12T02:45:05;15.50;99.90
59015;DHT22;44799;53.382;14.666;2022-09-12T02:47:37;15.40;99.90
59015;DHT22;44799;53.382;14.666;2022-09-12T02:50:05;14.70;99.90
59015;DHT22;44799;53.382;14.666;2022-09-12T02:52:33;15.40;99.90
59015;DHT22;44799;53.382;14.666;2022-09-12T02:55:00;16.00;99.90
59015;DHT22;44799;53.382;14.666;2022-09-12T02:57:26;14.50;99.90
59015;DHT22;44799;53.382;14.666;2022-09-12T02:59:54;15.30;99.90
59015;DHT22;44799;53.382;14.666;2022-09-12T13:01:11;20.70;99.90
59015;DHT22;44799;53.382;14.666;2022-09-12T13:04:10;21.00;99.90
59015;DHT22;44799;53.382;14.666;2022-09-12T13:06:45;21.20;99.90
59015;DHT22;44799;53.382;14.666;2022-09-12T13:11:56;21.40;99.90
59015;DHT22;44799;53.382;14.666;2022-09-12T13:14:37;21.50;99.10
59015;DHT22;44799;53.382;14.666;2022-09-12T13:17:21;21.40;99.20
59015;DHT22;44799;53.382;14.666;2022-09-12T13:19:49;21.50;99.40
59015;DHT22;44799;53.382;14.666;2022-09-12T13:22:16;21.50;99.60
59015;DHT22;44799;53.382;14.666;2022-09-12T13:24:47;21.50;98.90
59015;DHT22;44799;53.382;14.666;2022-09-12T13:27:20;21.60;99.00
59015;DHT22;44799;53.382;14.666;2022-09-12T13:29:47;21.80;98.80
59015;DHT22;44799;53.382;14.666;2022-09-12T13:32:15;21.70;98.50
59015;DHT22;44799;53.382;14.666;2022-09-12T13:35:11;21.80;97.90
59015;DHT22;44799;53.382;14.666;2022-09-12T13:40:54;21.70;97.50
59015;DHT22;44799;53.382;14.666;2022-09-12T13:43:41;21.60;97.60
59015;DHT22;44799;53.382;14.666;2022-09-12T13:46:09;21.60;97.80
59015;DHT22;44799;53.382;14.666;2022-09-12T13:48:38;21.40;97.30
59015;DHT22;44799;53.382;14.666;2022-09-12T13:51:05;21.40;97.30
59015;DHT22;44799;53.382;14.666;2022-09-12T13:53:43;21.70;97.00
59015;DHT22;44799;53.382;14.666;2022-09-12T13:56:19;22.00;96.30
59015;DHT22;44799;53.382;14.666;2022-09-12T13:58:54;22.30;95.10
59015;DHT22;44799;53.382;14.666;2022-09-12T14:01:24;22.70;94.90
59015;DHT22;44799;53.382;14.666;2022-09-12T14:03:56;22.70;94.90
59015;DHT22;44799;53.382;14.666;2022-09-12T14:06:45;22.90;94.30
59015;DHT22;44799;53.382;14.666;2022-09-12T14:09:23;23.00;93.70
59015;DHT22;44799;53.382;14.666;2022-09-12T14:11:50;23.10;93.10
59015;DHT22;44799;53.382;14.666;2022-09-12T14:14:28;23.40;94.00
59015;DHT22;44799;53.382;14.666;2022-09-12T14:16:57;23.60;92.30
59015;DHT22;44799;53.382;14.666;2022-09-12T14:19:24;23.80;91.00
59015;DHT22;44799;53.382;14.666;2022-09-12T14:21:52;23.80;90.50
59015;DHT22;44799;53.382;14.666;2022-09-12T14:24:19;23.60;90.80
59015;DHT22;44799;53.382;14.666;2022-09-12T14:26:51;23.60;91.10
59015;DHT22;44799;53.382;14.666;2022-09-12T14:29:19;23.60;90.50
59015;DHT22;44799;53.382;14.666;2022-09-12T14:32:02;23.60;90.00
59015;DHT22;44799;53.382;14.666;2022-09-12T14:34:28;23.50;92.20
59015;DHT22;44799;53.382;14.666;2022-09-12T14:36:55;22.50;92.60
59015;DHT22;44799;53.382;14.666;2022-09-12T14:42:12;22.90;93.50
59015;DHT22;44799;53.382;14.666;2022-09-12T14:44:39;22.60;93.90
59015;DHT22;44799;53.382;14.666;2022-09-12T14:47:22;22.50;95.10
59015;DHT22;44799;53.382;14.666;2022-09-12T14:49:49;22.50;95.30
59015;DHT22;44799;53.382;14.666;2022-09-12T14:52:28;22.40;95.10
59015;DHT22;44799;53.382;14.666;2022-09-12T14:55:18;22.40;95.70
59015;DHT22;44799;53.382;14.666;2022-09-12T14:57:44;22.40;95.60
59015;DHT22;44799;53.382;14.666;2022-09-12T15:00:17;22.20;96.00
59015;DHT22;44799;53.382;14.666;2022-09-12T15:02:46;22.20;95.80
59015;DHT22;44799;53.382;14.666;2022-09-12T15:05:20;22.10;95.60
59015;DHT22;44799;53.382;14.666;2022-09-12T15:07:51;22.70;95.30
59015;DHT22;44799;53.382;14.666;2022-09-12T15:10:33;22.20;94.90
59015;DHT22;44799;53.382;14.666;2022-09-12T15:15:35;21.50;95.10
59015;DHT22;44799;53.382;14.666;2022-09-12T15:18:02;22.10;95.10
59015;DHT22;44799;53.382;14.666;2022-09-12T15:20:29;22.10;95.80
59015;DHT22;44799;53.382;14.666;2022-09-12T15:22:55;22.20;94.70
59015;DHT22;44799;53.382;14.666;2022-09-12T15:25:21;22.30;95.10
59015;DHT22;44799;53.382;14.666;2022-09-12T15:27:49;22.50;94.50
59015;DHT22;44799;53.382;14.666;2022-09-12T15:30:16;22.50;94.00
59015;DHT22;44799;53.382;14.666;2022-09-12T15:32:43;22.70;93.80
59015;DHT22;44799;53.382;14.666;2022-09-12T15:35:18;22.80;94.30
59015;DHT22;44799;53.382;14.666;2022-09-12T15:37:45;22.80;93.60
59015;DHT22;44799;53.382;14.666;2022-09-12T15:40:11;22.70;93.80
59015;DHT22;44799;53.382;14.666;2022-09-12T15:42:37;22.70;94.00
59015;DHT22;44799;53.382;14.666;2022-09-12T15:45:19;22.70;93.80
59015;DHT22;44799;53.382;14.666;2022-09-12T15:47:46;22.60;94.20
59015;DHT22;44799;53.382;14.666;2022-09-12T15:50:12;22.50;93.80
59015;DHT22;44799;53.382;14.666;2022-09-12T15:52:38;22.50;94.60
59015;DHT22;44799;53.382;14.666;2022-09-12T15:55:08;22.60;94.40
59015;DHT22;44799;53.382;14.666;2022-09-12T15:57:36;21.90;94.10
59015;DHT22;44799;53.382;14.666;2022-09-12T16:00:03;22.50;94.40
59015;DHT22;44799;53.382;14.666;2022-09-12T16:02:30;22.30;94.00
59015;DHT22;44799;53.382;14.666;2022-09-12T16:04:56;22.30;94.70
59015;DHT22;44799;53.382;14.666;2022-09-12T16:07:22;22.30;94.80
59015;DHT22;44799;53.382;14.666;2022-09-12T16:09:48;22.20;94.90
59015;DHT22;44799;53.382;14.666;2022-09-12T16:12:14;22.10;94.90
59015;DHT22;44799;53.382;14.666;2022-09-12T16:14:40;22.00;95.00
59015;DHT22;44799;53.382;14.666;2022-09-12T16:17:06;22.00;95.20
59015;DHT22;44799;53.382;14.666;2022-09-12T16:19:32;21.90;95.90
59015;DHT22;44799;53.382;14.666;2022-09-12T16:21:58;21.90;95.90
59015;DHT22;44799;53.382;14.666;2022-09-12T16:24:24;21.80;95.90
59015;DHT22;44799;53.382;14.666;2022-09-12T16:26:49;21.70;96.10
59015;DHT22;44799;53.382;14.666;2022-09-12T16:29:15;21.50;96.60
59015;DHT22;44799;53.382;14.666;2022-09-12T16:31:41;21.50;96.80
59015;DHT22;44799;53.382;14.666;2022-09-12T16:34:09;21.40;97.00
59015;DHT22;44799;53.382;14.666;2022-09-12T16:36:35;21.30;97.20
59015;DHT22;44799;53.382;14.666;2022-09-12T16:39:00;21.30;97.50
59015;DHT22;44799;53.382;14.666;2022-09-12T16:41:26;21.20;97.70
59015;DHT22;44799;53.382;14.666;2022-09-12T16:43:53;21.10;97.80
59015;DHT22;44799;53.382;14.666;2022-09-12T16:46:25;21.10;97.90
59015;DHT22;44799;53.382;14.666;2022-09-12T16:48:55;21.00;98.10
59015;DHT22;44799;53.382;14.666;2022-09-12T16:51:24;21.00;98.40
59015;DHT22;44799;53.382;14.666;2022-09-12T16:53:51;20.90;98.20
59015;DHT22;44799;53.382;14.666;2022-09-12T16:56:17;20.90;98.30
59015;DHT22;44799;53.382;14.666;2022-09-12T16:58:44;20.80;98.30
59015;DHT22;44799;53.382;14.666;2022-09-12T17:01:21;20.70;98.80
59015;DHT22;44799;53.382;14.666;2022-09-12T17:03:47;20.70;98.90
59015;DHT22;44799;53.382;14.666;2022-09-12T17:06:17;20.60;98.90
59015;DHT22;44799;53.382;14.666;2022-09-12T17:08:46;20.50;99.20
59015;DHT22;44799;53.382;14.666;2022-09-12T17:11:15;20.50;99.20
59015;DHT22;44799;53.382;14.666;2022-09-12T17:13:46;20.40;99.70
59015;DHT22;44799;53.382;14.666;2022-09-12T17:16:12;20.40;99.90
59015;DHT22;44799;53.382;14.666;2022-09-12T17:18:38;20.30;99.90
59015;DHT22;44799;53.382;14.666;2022-09-12T17:21:09;20.20;99.90
59015;DHT22;44799;53.382;14.666;2022-09-12T17:23:35;20.10;99.90
59015;DHT22;44799;53.382;14.666;2022-09-12T17:26:01;20.00;99.90
59015;DHT22;44799;53.382;14.666;2022-09-12T17:28:27;20.00;99.90
59015;DHT22;44799;53.382;14.666;2022-09-12T17:30:54;19.90;99.90
59015;DHT22;44799;53.382;14.666;2022-09-12T17:33:21;19.80;99.90
59015;DHT22;44799;53.382;14.666;2022-09-12T17:35:47;19.70;99.90
59015;DHT22;44799;53.382;14.666;2022-09-12T17:38:13;19.60;99.90
59015;DHT22;44799;53.382;14.666;2022-09-12T17:40:39;19.60;99.90
59015;DHT22;44799;53.382;14.666;2022-09-12T17:43:04;19.50;99.90
59015;DHT22;44799;53.382;14.666;2022-09-12T17:45:30;19.40;99.90
59015;DHT22;44799;53.382;14.666;2022-09-12T17:47:57;19.30;99.90
59015;DHT22;44799;53.382;14.666;2022-09-12T17:50:23;19.20;99.90
59015;DHT22;44799;53.382;14.666;2022-09-12T17:52:49;19.10;99.90
59015;DHT22;44799;53.382;14.666;2022-09-12T17:55:16;19.00;99.90
59015;DHT22;44799;53.382;14.666;2022-09-12T17:57:42;18.90;99.90
59015;DHT22;44799;53.382;14.666;2022-09-12T18:00:10;18.80;99.90
59015;DHT22;44799;53.382;14.666;2022-09-12T18:02:36;18.70;99.90
59015;DHT22;44799;53.382;14.666;2022-09-12T18:05:03;18.70;99.90
59015;DHT22;44799;53.382;14.666;2022-09-12T18:07:31;18.60;99.90
59015;DHT22;44799;53.382;14.666;2022-09-12T18:09:57;18.50;99.90
59015;DHT22;44799;53.382;14.666;2022-09-12T18:12:23;18.50;99.90
59015;DHT22;44799;53.382;14.666;2022-09-12T18:14:49;18.40;99.90
59015;DHT22;44799;53.382;14.666;2022-09-12T18:17:15;18.40;99.90
59015;DHT22;44799;53.382;14.666;2022-09-12T18:19:41;18.30;99.90
59015;DHT22;44799;53.382;14.666;2022-09-12T18:22:08;18.20;99.90
59015;DHT22;44799;53.382;14.666;2022-09-12T18:24:34;18.10;99.90
59015;DHT22;44799;53.382;14.666;2022-09-12T18:27:00;18.10;99.90
59015;DHT22;44799;53.382;14.666;2022-09-12T18:29:27;18.00;99.90
59015;DHT22;44799;53.382;14.666;2022-09-12T18:31:53;18.00;99.90
59015;DHT22;44799;53.382;14.666;2022-09-12T18:34:20;17.90;99.90
59015;DHT22;44799;53.382;14.666;2022-09-12T18:36:47;17.80;99.90
59015;DHT22;44799;53.382;14.666;2022-09-12T18:39:14;17.80;99.90
59015;DHT22;44799;53.382;14.666;2022-09-12T18:41:40;17.80;99.90
59015;DHT22;44799;53.382;14.666;2022-09-12T18:44:07;17.70;99.90
59015;DHT22;44799;53.382;14.666;2022-09-12T18:46:33;17.60;99.90
59015;DHT22;44799;53.382;14.666;2022-09-12T18:49:00;17.60;99.90
59015;DHT22;44799;53.382;14.666;2022-09-12T18:51:31;17.50;99.90
59015;DHT22;44799;53.382;14.666;2022-09-12T18:54:08;17.40;99.90
59015;DHT22;44799;53.382;14.666;2022-09-12T18:56:36;17.40;99.90
59015;DHT22;44799;53.382;14.666;2022-09-12T18:59:04;17.40;99.90
59015;DHT22;44799;53.382;14.666;2022-09-12T19:01:36;16.50;99.90
59015;DHT22;44799;53.382;14.666;2022-09-12T19:04:02;17.30;99.90
59015;DHT22;44799;53.382;14.666;2022-09-12T19:06:34;17.30;99.90
59015;DHT22;44799;53.382;14.666;2022-09-12T19:09:00;17.30;99.90
59015;DHT22;44799;53.382;14.666;2022-09-12T19:11:27;17.20;99.90
59015;DHT22;44799;53.382;14.666;2022-09-12T19:13:54;17.20;99.90
59015;DHT22;44799;53.382;14.666;2022-09-12T19:16:22;17.20;99.90
59015;DHT22;44799;53.382;14.666;2022-09-12T19:18:49;17.20;99.90
59015;DHT22;44799;53.382;14.666;2022-09-12T19:21:30;17.10;99.90
59015;DHT22;44799;53.382;14.666;2022-09-12T19:23:58;17.10;99.90
59015;DHT22;44799;53.382;14.666;2022-09-12T19:26:27;17.10;99.90
59015;DHT22;44799;53.382;14.666;2022-09-12T19:28:54;17.00;99.90
59015;DHT22;44799;53.382;14.666;2022-09-12T19:31:24;17.00;99.90
59015;DHT22;44799;53.382;14.666;2022-09-12T19:33:50;17.00;99.90
59015;DHT22;44799;53.382;14.666;2022-09-12T19:36:20;16.90;99.90
59015;DHT22;44799;53.382;14.666;2022-09-12T19:38:47;16.90;99.90
59015;DHT22;44799;53.382;14.666;2022-09-12T19:41:12;16.90;99.90
59015;DHT22;44799;53.382;14.666;2022-09-12T19:43:39;16.80;99.90
59015;DHT22;44799;53.382;14.666;2022-09-12T19:46:05;16.70;99.90
59015;DHT22;44799;53.382;14.666;2022-09-12T19:48:31;16.60;99.90
59015;DHT22;44799;53.382;14.666;2022-09-12T19:50:58;16.70;99.90
59015;DHT22;44799;53.382;14.666;2022-09-12T19:53:24;16.60;99.90
59015;DHT22;44799;53.382;14.666;2022-09-12T19:55:50;16.50;99.90
59015;DHT22;44799;53.382;14.666;2022-09-12T19:58:16;16.50;99.90
59015;DHT22;44799;53.382;14.666;2022-09-12T20:00:42;16.50;99.90
59015;DHT22;44799;53.382;14.666;2022-09-12T20:03:08;16.40;99.90
59015;DHT22;44799;53.382;14.666;2022-09-12T20:05:34;16.40;99.90
59015;DHT22;44799;53.382;14.666;2022-09-12T20:08:00;16.30;99.90
59015;DHT22;44799;53.382;14.666;2022-09-12T20:10:27;16.30;99.90
59015;DHT22;44799;53.382;14.666;2022-09-12T20:12:53;16.30;99.90
59015;DHT22;44799;53.382;14.666;2022-09-12T20:15:19;15.30;99.90
59015;DHT22;44799;53.382;14.666;2022-09-12T20:17:45;16.20;99.90
59015;DHT22;44799;53.382;14.666;2022-09-12T20:20:11;16.20;99.90
59015;DHT22;44799;53.382;14.666;2022-09-12T20:22:37;16.10;99.90
59015;DHT22;44799;53.382;14.666;2022-09-12T20:25:03;16.10;99.90
59015;DHT22;44799;53.382;14.666;2022-09-12T20:27:29;16.00;99.90
59015;DHT22;44799;53.382;14.666;2022-09-12T20:29:55;16.00;99.90
59015;DHT22;44799;53.382;14.666;2022-09-12T20:32:23;16.00;99.90
59015;DHT22;44799;53.382;14.666;2022-09-12T20:34:49;15.90;99.90
59015;DHT22;44799;53.382;14.666;2022-09-12T20:37:16;15.90;99.90
59015;DHT22;44799;53.382;14.666;2022-09-12T20:39:42;15.90;99.90
59015;DHT22;44799;53.382;14.666;2022-09-12T20:42:08;15.80;99.90
59015;DHT22;44799;53.382;14.666;2022-09-12T20:44:34;14.80;99.90
59015;DHT22;44799;53.382;14.666;2022-09-12T20:47:00;15.80;99.90
59015;DHT22;44799;53.382;14.666;2022-09-12T20:49:29;15.80;99.90
59015;DHT22;44799;53.382;14.666;2022-09-12T20:51:55;15.80;99.90
59015;DHT22;44799;53.382;14.666;2022-09-12T20:54:21;15.80;99.90
59015;DHT22;44799;53.382;14.666;2022-09-12T20:56:47;15.70;99.90
59015;DHT22;44799;53.382;14.666;2022-09-12T20:59:12;15.70;99.90
59015;DHT22;44799;53.382;14.666;2022-09-12T21:01:38;15.70;99.90
59015;DHT22;44799;53.382;14.666;2022-09-12T21:04:04;15.70;99.90
59015;DHT22;44799;53.382;14.666;2022-09-12T21:06:33;15.60;99.90
59015;DHT22;44799;53.382;14.666;2022-09-12T21:08:59;15.60;99.90
59015;DHT22;44799;53.382;14.666;2022-09-12T21:11:26;15.60;99.90
59015;DHT22;44799;53.382;14.666;2022-09-12T21:13:53;15.60;99.90
59015;DHT22;44799;53.382;14.666;2022-09-12T21:16:21;15.60;99.90
59015;DHT22;44799;53.382;14.666;2022-09-12T21:18:53;15.50;99.90
59015;DHT22;44799;53.382;14.666;2022-09-12T21:21:19;15.50;99.90
59015;DHT22;44799;53.382;14.666;2022-09-12T21:23:45;15.50;99.90
59015;DHT22;44799;53.382;14.666;2022-09-12T21:26:11;15.40;99.90
59015;DHT22;44799;53.382;14.666;2022-09-12T21:28:37;15.40;99.90
59015;DHT22;44799;53.382;14.666;2022-09-12T21:31:03;15.40;99.90
59015;DHT22;44799;53.382;14.666;2022-09-12T21:33:29;15.40;99.90
59015;DHT22;44799;53.382;14.666;2022-09-12T21:36:03;15.40;99.90
59015;DHT22;44799;53.382;14.666;2022-09-12T21:38:30;15.30;99.90
59015;DHT22;44799;53.382;14.666;2022-09-12T21:41:07;15.30;99.90
59015;DHT22;44799;53.382;14.666;2022-09-12T21:43:33;15.30;99.90
59015;DHT22;44799;53.382;14.666;2022-09-12T21:46:00;15.30;99.90
59015;DHT22;44799;53.382;14.666;2022-09-12T21:48:26;15.30;99.90
59015;DHT22;44799;53.382;14.666;2022-09-12T21:50:52;15.30;99.90
59015;DHT22;44799;53.382;14.666;2022-09-12T21:53:18;15.30;99.90
59015;DHT22;44799;53.382;14.666;2022-09-12T21:55:44;15.30;99.90
59015;DHT22;44799;53.382;14.666;2022-09-12T21:58:10;15.30;99.90
59015;DHT22;44799;53.382;14.666;2022-09-12T22:00:36;15.20;99.90
59015;DHT22;44799;53.382;14.666;2022-09-12T22:03:02;15.20;99.90
59015;DHT22;44799;53.382;14.666;2022-09-12T22:05:29;15.20;99.90
59015;DHT22;44799;53.382;14.666;2022-09-12T22:07:57;15.20;99.90
59015;DHT22;44799;53.382;14.666;2022-09-12T22:10:27;15.20;99.90
59015;DHT22;44799;53.382;14.666;2022-09-12T22:12:53;15.20;99.90
59015;DHT22;44799;53.382;14.666;2022-09-12T22:15:19;14.80;99.90
59015;DHT22;44799;53.382;14.666;2022-09-12T22:17:45;15.20;99.90
59015;DHT22;44799;53.382;14.666;2022-09-12T22:20:11;15.20;99.90
59015;DHT22;44799;53.382;14.666;2022-09-12T22:22:37;15.20;99.90
59015;DHT22;44799;53.382;14.666;2022-09-12T22:25:22;15.20;99.90
59015;DHT22;44799;53.382;14.666;2022-09-12T22:27:51;15.20;99.90
59015;DHT22;44799;53.382;14.666;2022-09-12T22:30:18;15.20;99.90
59015;DHT22;44799;53.382;14.666;2022-09-12T22:32:46;15.20;99.90
59015;DHT22;44799;53.382;14.666;2022-09-12T22:35:13;15.20;99.90
59015;DHT22;44799;53.382;14.666;2022-09-12T22:37:40;15.20;99.90
59015;DHT22;44799;53.382;14.666;2022-09-12T22:40:06;15.20;99.90
59015;DHT22;44799;53.382;14.666;2022-09-12T22:42:32;15.20;99.90
59015;DHT22;44799;53.382;14.666;2022-09-12T22:44:59;15.20;99.90
59015;DHT22;44799;53.382;14.666;2022-09-12T22:47:26;15.30;99.90
59015;DHT22;44799;53.382;14.666;2022-09-12T22:49:52;15.30;99.90
59015;DHT22;44799;53.382;14.666;2022-09-12T22:52:18;15.30;99.90
59015;DHT22;44799;53.382;14.666;2022-09-12T22:54:44;15.30;99.90
59015;DHT22;44799;53.382;14.666;2022-09-12T22:57:10;15.30;99.90
59015;DHT22;44799;53.382;14.666;2022-09-12T22:59:36;15.30;99.90
59015;DHT22;44799;53.382;14.666;2022-09-12T23:02:03;15.30;99.90
59015;DHT22;44799;53.382;14.666;2022-09-12T23:04:29;15.30;99.90
59015;DHT22;44799;53.382;14.666;2022-09-12T23:06:55;15.30;99.90
59015;DHT22;44799;53.382;14.666;2022-09-12T23:09:21;15.30;99.90
59015;DHT22;44799;53.382;14.666;2022-09-12T23:11:47;15.20;99.90
59015;DHT22;44799;53.382;14.666;2022-09-12T23:14:13;15.20;99.90
59015;DHT22;44799;53.382;14.666;2022-09-12T23:16:39;15.20;99.90
59015;DHT22;44799;53.382;14.666;2022-09-12T23:19:05;15.20;99.90
59015;DHT22;44799;53.382;14.666;2022-09-12T23:21:30;15.20;99.90
59015;DHT22;44799;53.382;14.666;2022-09-12T23:23:56;15.20;99.90
59015;DHT22;44799;53.382;14.666;2022-09-12T23:26:24;15.20;99.90
59015;DHT22;44799;53.382;14.666;2022-09-12T23:28:54;15.20;99.90
59015;DHT22;44799;53.382;14.666;2022-09-12T23:31:21;15.20;99.90
59015;DHT22;44799;53.382;14.666;2022-09-12T23:33:48;15.20;99.90
59015;DHT22;44799;53.382;14.666;2022-09-12T23:36:16;15.20;99.90
59015;DHT22;44799;53.382;14.666;2022-09-12T23:38:43;15.20;99.90
59015;DHT22;44799;53.382;14.666;2022-09-12T23:41:11;15.20;99.90
59015;DHT22;44799;53.382;14.666;2022-09-12T23:43:37;15.20;99.90
59015;DHT22;44799;53.382;14.666;2022-09-12T23:46:03;15.20;99.90
59015;DHT22;44799;53.382;14.666;2022-09-12T23:48:30;15.20;99.90
59015;DHT22;44799;53.382;14.666;2022-09-12T23:50:55;15.20;99.90
59015;DHT22;44799;53.382;14.666;2022-09-12T23:53:21;15.10;99.90
59015;DHT22;44799;53.382;14.666;2022-09-12T23:55:48;15.10;99.90
59015;DHT22;44799;53.382;14.666;2022-09-12T23:58:14;15.10;99.90
